Time;durP1;ratioP1;P1;durP2;ratioP2;P2;SDS_P1;SDS_P2;PMS_P1;PMS_P2;Temp;Humidity;BMP_temperature;BMP_pressure;BME280_temperature;BME280_humidity;BME280_pressure;Samples;Min_cycle;Max_cycle;Signal;HPM_P1;HPM_P2
2023/08/28 00:02:01;;;;;;;;;;;22.10;69.40;;;;;;5053263;28;1195;-68
2023/08/28 00:04:27;;;;;;;;;;;22.10;69.40;;;;;;5048501;28;874;-68
2023/08/28 00:06:52;;;;;;;;;;;22.10;69.40;;;;;;5052965;28;936;-68
2023/08/28 00:09:18;;;;;;;;;;;22.10;69.40;;;;;;5052241;28;1256;-67
2023/08/28 00:11:44;;;;;;;;;;;22.10;69.40;;;;;;5051626;28;856;-68
2023/08/28 00:14:09;;;;;;;;;;;22.10;69.40;;;;;;5051918;28;1914;-67
2023/08/28 00:16:35;;;;;;;;;;;22.10;69.40;;;;;;5052689;28;949;-66
2023/08/28 00:19:00;;;;;;;;;;;22.10;69.40;;;;;;5051343;28;1295;-67
2023/08/28 00:21:26;;;;;;;;;;;22.10;69.40;;;;;;5052595;28;922;-67
2023/08/28 00:23:51;;;;;;;;;;;22.10;69.40;;;;;;5051151;28;875;-67
2023/08/28 00:26:17;;;;;;;;;;;22.10;69.50;;;;;;5052795;28;876;-67
2023/08/28 00:28:42;;;;;;;;;;;22.10;69.40;;;;;;5051731;28;1317;-68
2023/08/28 00:31:08;;;;;;;;;;;22.10;69.50;;;;;;5052760;28;1241;-67
2023/08/28 00:33:33;;;;;;;;;;;22.10;69.50;;;;;;5052633;28;1973;-67
2023/08/28 00:35:59;;;;;;;;;;;22.10;69.50;;;;;;5052147;28;887;-68
2023/08/28 00:38:24;;;;;;;;;;;22.10;69.50;;;;;;5051908;28;790;-67
2023/08/28 00:40:49;;;;;;;;;;;22.10;69.50;;;;;;5051849;28;1357;-68
2023/08/28 00:43:15;;;;;;;;;;;22.10;69.50;;;;;;5052252;28;1583;-68
2023/08/28 00:45:42;;;;;;;;;;;22.10;69.50;;;;;;5052404;28;1010;-67
2023/08/28 00:48:08;;;;;;;;;;;22.10;69.50;;;;;;5051305;28;896;-67
2023/08/28 00:50:33;;;;;;;;;;;22.10;69.60;;;;;;5046626;28;1355;-68
2023/08/28 00:52:59;;;;;;;;;;;22.10;69.60;;;;;;5045949;28;1969;-68
2023/08/28 00:55:24;;;;;;;;;;;22.10;69.60;;;;;;5052175;28;813;-67
2023/08/28 00:57:50;;;;;;;;;;;22.10;69.60;;;;;;5051604;28;1014;-68
2023/08/28 01:00:16;;;;;;;;;;;22.10;69.60;;;;;;5051810;28;1364;-69
2023/08/28 01:02:41;;;;;;;;;;;22.10;69.60;;;;;;5044124;28;865;-67
2023/08/28 01:05:07;;;;;;;;;;;22.10;69.60;;;;;;5052560;28;874;-68
2023/08/28 01:07:42;;;;;;;;;;;22.10;69.60;;;;;;5043179;28;868;-68
2023/08/28 01:10:13;;;;;;;;;;;22.10;69.60;;;;;;5043661;28;1358;-68
2023/08/28 01:12:57;;;;;;;;;;;22.10;69.60;;;;;;5051342;28;855;-68
2023/08/28 01:15:23;;;;;;;;;;;22.10;69.60;;;;;;5050962;28;940;-68
2023/08/28 01:17:50;;;;;;;;;;;22.10;69.70;;;;;;5043769;28;1312;-68
2023/08/28 01:20:16;;;;;;;;;;;22.10;69.70;;;;;;5045073;28;1251;-68
2023/08/28 01:22:47;;;;;;;;;;;22.10;69.70;;;;;;5051607;28;960;-67
2023/08/28 01:25:13;;;;;;;;;;;22.10;69.70;;;;;;5051126;28;978;-68
2023/08/28 01:27:38;;;;;;;;;;;22.10;69.70;;;;;;5048672;28;1276;-67
2023/08/28 01:30:07;;;;;;;;;;;22.10;69.70;;;;;;5044597;28;1268;-67
2023/08/28 01:32:33;;;;;;;;;;;22.10;69.70;;;;;;5051214;28;837;-67
2023/08/28 01:34:58;;;;;;;;;;;22.10;69.70;;;;;;5050956;28;1905;-67
2023/08/28 01:37:24;;;;;;;;;;;22.10;69.70;;;;;;5048595;28;868;-67
2023/08/28 01:39:49;;;;;;;;;;;22.10;69.70;;;;;;5049866;28;1389;-67
2023/08/28 01:42:15;;;;;;;;;;;22.10;69.80;;;;;;5043060;28;969;-68
2023/08/28 01:44:40;;;;;;;;;;;22.10;69.80;;;;;;5050177;28;1352;-67
2023/08/28 01:47:06;;;;;;;;;;;22.10;69.80;;;;;;5039973;28;1026;-67
2023/08/28 01:49:32;;;;;;;;;;;22.10;69.80;;;;;;5042206;28;1269;-68
2023/08/28 01:51:58;;;;;;;;;;;22.10;69.80;;;;;;5050357;28;1517;-67
2023/08/28 01:54:23;;;;;;;;;;;22.10;69.80;;;;;;5050782;28;1901;-67
2023/08/28 01:56:49;;;;;;;;;;;22.10;69.80;;;;;;5050792;28;872;-68
2023/08/28 01:59:14;;;;;;;;;;;22.10;69.90;;;;;;5046608;28;1224;-66
2023/08/28 02:01:40;;;;;;;;;;;22.10;69.80;;;;;;5049598;28;1263;-68
2023/08/28 02:04:05;;;;;;;;;;;22.10;69.90;;;;;;5051020;28;1268;-68
2023/08/28 02:06:31;;;;;;;;;;;22.10;69.90;;;;;;5050706;28;981;-67
2023/08/28 02:08:56;;;;;;;;;;;22.10;69.90;;;;;;5049859;28;1261;-68
2023/08/28 02:11:22;;;;;;;;;;;22.10;69.90;;;;;;5050646;28;1037;-68
2023/08/28 02:13:47;;;;;;;;;;;22.10;69.90;;;;;;5055960;28;1977;-68
2023/08/28 02:16:13;;;;;;;;;;;22.10;69.90;;;;;;5050699;28;1358;-68
2023/08/28 02:18:39;;;;;;;;;;;22.10;69.90;;;;;;5049827;28;1396;-68
2023/08/28 02:21:04;;;;;;;;;;;22.10;69.90;;;;;;5050497;28;1113;-68
2023/08/28 02:23:30;;;;;;;;;;;22.10;70.00;;;;;;5050913;28;879;-68
2023/08/28 02:25:55;;;;;;;;;;;22.10;69.90;;;;;;5049349;28;1353;-68
2023/08/28 02:28:21;;;;;;;;;;;22.10;69.90;;;;;;5046582;28;1362;-68
2023/08/28 02:30:46;;;;;;;;;;;22.10;69.90;;;;;;5049890;28;1564;-68
2023/08/28 02:33:12;;;;;;;;;;;22.10;70.00;;;;;;5043229;28;1910;-68
2023/08/28 02:35:38;;;;;;;;;;;22.10;70.00;;;;;;5046482;28;1375;-68
2023/08/28 02:38:06;;;;;;;;;;;22.10;70.00;;;;;;5049799;28;1040;-68
2023/08/28 02:40:32;;;;;;;;;;;22.10;70.00;;;;;;5049781;28;1266;-68
2023/08/28 02:43:05;;;;;;;;;;;22.10;70.00;;;;;;5049309;28;1626;-68
2023/08/28 02:45:31;;;;;;;;;;;22.10;70.00;;;;;;5048819;28;1317;-68
2023/08/28 02:47:56;;;;;;;;;;;22.10;70.00;;;;;;5048453;28;880;-67
2023/08/28 02:50:22;;;;;;;;;;;22.10;70.00;;;;;;5050118;28;1357;-68
2023/08/28 02:52:47;;;;;;;;;;;22.10;70.00;;;;;;5051062;28;1909;-68
2023/08/28 02:55:13;;;;;;;;;;;22.10;70.00;;;;;;5051073;28;808;-68
2023/08/28 02:57:38;;;;;;;;;;;22.10;70.00;;;;;;5049802;28;1379;-67
2023/08/28 03:00:05;;;;;;;;;;;22.10;70.00;;;;;;5049349;28;1389;-67
2023/08/28 03:02:30;;;;;;;;;;;22.10;70.00;;;;;;5049698;28;871;-67
2023/08/28 03:04:56;;;;;;;;;;;22.10;70.00;;;;;;5049570;28;923;-67
2023/08/28 03:07:21;;;;;;;;;;;22.10;70.00;;;;;;5050144;28;1047;-68
2023/08/28 03:09:47;;;;;;;;;;;22.10;70.00;;;;;;5049185;28;1253;-68
2023/08/28 03:12:12;;;;;;;;;;;22.10;70.00;;;;;;5049856;28;920;-67
2023/08/28 03:14:38;;;;;;;;;;;22.10;70.00;;;;;;5049753;28;1891;-68
2023/08/28 03:17:04;;;;;;;;;;;22.10;70.00;;;;;;5049866;28;844;-68
2023/08/28 03:19:30;;;;;;;;;;;22.10;70.00;;;;;;5048347;28;1294;-68
2023/08/28 03:21:56;;;;;;;;;;;22.10;70.10;;;;;;5048861;28;907;-68
2023/08/28 03:24:21;;;;;;;;;;;22.10;70.00;;;;;;5049817;28;937;-68
2023/08/28 03:26:46;;;;;;;;;;;22.10;70.00;;;;;;5049590;28;852;-68
2023/08/28 03:29:12;;;;;;;;;;;22.10;70.10;;;;;;5048826;28;1370;-68
2023/08/28 03:31:37;;;;;;;;;;;22.10;70.10;;;;;;5049497;28;816;-68
2023/08/28 03:34:03;;;;;;;;;;;22.10;70.10;;;;;;5049051;28;1953;-68
2023/08/28 03:36:28;;;;;;;;;;;22.10;70.20;;;;;;5049589;28;828;-68
2023/08/28 03:38:54;;;;;;;;;;;22.10;70.10;;;;;;5048736;28;1327;-68
2023/08/28 03:41:19;;;;;;;;;;;22.10;70.10;;;;;;5049396;28;1135;-68
2023/08/28 03:43:45;;;;;;;;;;;22.10;70.20;;;;;;5044829;28;859;-68
2023/08/28 03:46:10;;;;;;;;;;;22.10;70.20;;;;;;5049223;28;879;-68
2023/08/28 03:48:36;;;;;;;;;;;22.10;70.10;;;;;;5048331;28;848;-68
2023/08/28 03:51:01;;;;;;;;;;;22.10;70.20;;;;;;5049500;28;1352;-68
2023/08/28 03:53:27;;;;;;;;;;;22.10;70.20;;;;;;5049392;28;1950;-68
2023/08/28 03:55:53;;;;;;;;;;;22.10;70.20;;;;;;5052137;28;893;-68
2023/08/28 03:58:20;;;;;;;;;;;22.10;70.20;;;;;;5051751;28;979;-68
2023/08/28 04:00:46;;;;;;;;;;;22.10;70.20;;;;;;5053040;28;1259;-68
2023/08/28 04:03:11;;;;;;;;;;;22.10;70.20;;;;;;5046686;28;919;-68
2023/08/28 04:05:40;;;;;;;;;;;22.10;70.20;;;;;;5053629;28;804;-70
2023/08/28 04:08:05;;;;;;;;;;;22.10;70.20;;;;;;5052437;28;941;-68
2023/08/28 04:10:31;;;;;;;;;;;22.10;70.20;;;;;;5048875;28;1280;-72
2023/08/28 04:12:56;;;;;;;;;;;22.10;70.20;;;;;;5053798;28;1922;-70
2023/08/28 04:15:21;;;;;;;;;;;22.10;70.20;;;;;;5047631;28;866;-69
2023/08/28 04:17:47;;;;;;;;;;;22.10;70.30;;;;;;5052657;28;815;-70
2023/08/28 04:20:13;;;;;;;;;;;22.10;70.30;;;;;;5044962;28;1743;-69
2023/08/28 04:22:43;;;;;;;;;;;22.10;70.30;;;;;;5044761;28;879;-70
2023/08/28 04:25:09;;;;;;;;;;;22.10;70.30;;;;;;5053833;28;890;-70
2023/08/28 04:27:34;;;;;;;;;;;22.10;70.30;;;;;;5047925;28;1338;-69
2023/08/28 04:30:00;;;;;;;;;;;22.10;70.30;;;;;;5051712;28;1255;-68
2023/08/28 04:32:25;;;;;;;;;;;22.10;70.30;;;;;;5052745;28;1916;-69
2023/08/28 04:34:51;;;;;;;;;;;22.10;70.30;;;;;;5048150;28;1913;-69
2023/08/28 04:37:16;;;;;;;;;;;22.10;70.30;;;;;;5052967;28;897;-69
2023/08/28 04:39:43;;;;;;;;;;;22.10;70.40;;;;;;5045088;28;1251;-69
2023/08/28 04:42:09;;;;;;;;;;;22.10;70.30;;;;;;5058978;28;1160;-68
2023/08/28 04:44:35;;;;;;;;;;;22.10;70.40;;;;;;5043718;28;1280;-68
2023/08/28 04:47:00;;;;;;;;;;;22.10;71.10;;;;;;5044693;28;946;-69
2023/08/28 04:49:25;;;;;;;;;;;22.10;70.40;;;;;;5044890;28;1365;-68
2023/08/28 04:51:51;;;;;;;;;;;22.10;70.40;;;;;;5052126;28;869;-69
2023/08/28 04:54:16;;;;;;;;;;;22.10;70.30;;;;;;5051834;28;1971;-69
2023/08/28 04:56:42;;;;;;;;;;;22.10;70.30;;;;;;5052049;28;883;-69
2023/08/28 04:59:07;;;;;;;;;;;22.10;70.40;;;;;;5051244;28;1251;-69
2023/08/28 05:01:33;;;;;;;;;;;22.10;70.40;;;;;;5051953;28;811;-69
2023/08/28 05:03:58;;;;;;;;;;;22.10;70.40;;;;;;5052117;28;880;-69
2023/08/28 05:06:24;;;;;;;;;;;22.10;70.40;;;;;;5051483;28;863;-68
2023/08/28 05:08:50;;;;;;;;;;;22.10;70.40;;;;;;5051201;28;1264;-69
2023/08/28 05:11:16;;;;;;;;;;;22.10;70.40;;;;;;5046147;28;865;-68
2023/08/28 05:13:41;;;;;;;;;;;22.10;70.40;;;;;;5045885;28;1914;-69
2023/08/28 05:16:07;;;;;;;;;;;22.10;70.40;;;;;;5040905;28;982;-69
2023/08/28 05:18:32;;;;;;;;;;;22.10;70.40;;;;;;5051257;28;1412;-69
2023/08/28 05:20:58;;;;;;;;;;;22.10;70.40;;;;;;5051603;28;1383;-69
2023/08/28 05:23:25;;;;;;;;;;;22.10;70.50;;;;;;5045418;28;887;-71
2023/08/28 05:25:54;;;;;;;;;;;22.10;71.10;;;;;;5050796;28;902;-71
2023/08/28 05:28:19;;;;;;;;;;;22.10;66.50;;;;;;5050776;28;1348;-71
2023/08/28 05:30:45;;;;;;;;;;;22.00;62.80;;;;;;5051523;28;1285;-70
2023/08/28 05:33:10;;;;;;;;;;;22.00;65.00;;;;;;5051544;28;1902;-71
2023/08/28 05:35:36;;;;;;;;;;;22.00;64.40;;;;;;5048602;28;2081;-70
2023/08/28 05:38:01;;;;;;;;;;;22.00;64.40;;;;;;5040932;28;1851;-72
2023/08/28 05:40:26;;;;;;;;;;;22.00;65.00;;;;;;5050453;28;1362;-71
2023/08/28 05:42:52;;;;;;;;;;;22.00;65.10;;;;;;5050223;28;1119;-72
2023/08/28 05:45:17;;;;;;;;;;;21.90;65.10;;;;;;5050764;28;1026;-72
2023/08/28 05:47:43;;;;;;;;;;;21.90;65.50;;;;;;5051268;28;846;-71
2023/08/28 05:50:08;;;;;;;;;;;22.00;64.80;;;;;;5043538;28;1287;-69
2023/08/28 05:52:36;;;;;;;;;;;21.90;64.80;;;;;;5051290;28;848;-70
2023/08/28 05:55:03;;;;;;;;;;;21.90;64.70;;;;;;5049245;28;1917;-69
2023/08/28 05:57:29;;;;;;;;;;;22.00;64.80;;;;;;5050677;28;895;-69
2023/08/28 05:59:54;;;;;;;;;;;22.00;64.90;;;;;;5050168;28;1381;-70
2023/08/28 06:02:20;;;;;;;;;;;21.90;63.70;;;;;;5051107;28;990;-70
2023/08/28 06:04:47;;;;;;;;;;;21.90;63.80;;;;;;5051088;28;806;-70
2023/08/28 06:07:12;;;;;;;;;;;21.90;64.30;;;;;;5050541;28;824;-70
2023/08/28 06:09:38;;;;;;;;;;;21.90;62.60;;;;;;5050105;28;1264;-69
2023/08/28 06:12:04;;;;;;;;;;;21.90;61.20;;;;;;5049965;28;990;-69
2023/08/28 06:14:29;;;;;;;;;;;21.90;61.50;;;;;;5050447;28;1906;-71
2023/08/28 06:16:55;;;;;;;;;;;21.80;62.00;;;;;;5049836;28;1041;-70
2023/08/28 06:19:20;;;;;;;;;;;21.90;62.50;;;;;;5049687;28;1318;-71
2023/08/28 06:21:45;;;;;;;;;;;21.90;62.40;;;;;;5050497;28;883;-68
2023/08/28 06:24:12;;;;;;;;;;;21.80;63.10;;;;;;5050928;28;879;-67
2023/08/28 06:26:39;;;;;;;;;;;21.80;62.20;;;;;;5048130;28;899;-67
2023/08/28 06:29:04;;;;;;;;;;;21.80;62.20;;;;;;5049065;28;1276;-66
2023/08/28 06:31:30;;;;;;;;;;;21.80;62.20;;;;;;5050267;28;816;-70
2023/08/28 06:33:55;;;;;;;;;;;21.80;62.50;;;;;;5050213;28;1898;-68
2023/08/28 06:36:20;;;;;;;;;;;21.80;62.40;;;;;;5050337;28;1284;-68
2023/08/28 06:38:48;;;;;;;;;;;21.80;62.30;;;;;;5049017;28;2093;-70
2023/08/28 06:41:14;;;;;;;;;;;21.80;62.00;;;;;;5049492;28;1323;-70
2023/08/28 06:43:39;;;;;;;;;;;21.80;62.00;;;;;;5049224;28;1329;-69
2023/08/28 06:46:05;;;;;;;;;;;21.80;61.80;;;;;;5048592;28;2085;-69
2023/08/28 06:48:30;;;;;;;;;;;21.80;62.30;;;;;;5048557;28;1540;-70
2023/08/28 06:50:56;;;;;;;;;;;21.80;62.50;;;;;;5048889;28;1356;-69
2023/08/28 06:53:21;;;;;;;;;;;21.80;62.50;;;;;;5049749;28;1975;-69
2023/08/28 06:55:47;;;;;;;;;;;21.80;62.60;;;;;;5049976;28;879;-69
2023/08/28 06:58:12;;;;;;;;;;;21.80;62.30;;;;;;5049236;28;851;-69
2023/08/28 07:00:38;;;;;;;;;;;21.80;62.00;;;;;;5050081;28;1243;-69
2023/08/28 07:03:03;;;;;;;;;;;21.80;62.10;;;;;;5050208;28;804;-69
2023/08/28 07:05:29;;;;;;;;;;;21.80;62.20;;;;;;5049694;28;1014;-69
2023/08/28 07:07:55;;;;;;;;;;;21.80;62.10;;;;;;5049105;28;1006;-69
2023/08/28 07:10:20;;;;;;;;;;;21.80;62.80;;;;;;5049865;28;1295;-69
2023/08/28 07:12:46;;;;;;;;;;;21.80;62.30;;;;;;5049918;28;884;-69
2023/08/28 07:15:18;;;;;;;;;;;21.80;61.90;;;;;;5049440;28;1906;-69
2023/08/28 07:17:43;;;;;;;;;;;21.70;61.80;;;;;;5049948;28;954;-69
2023/08/28 07:20:09;;;;;;;;;;;21.70;61.60;;;;;;5049026;28;1394;-69
2023/08/28 07:22:34;;;;;;;;;;;21.80;61.80;;;;;;5049774;28;947;-69
2023/08/28 07:25:00;;;;;;;;;;;21.70;61.80;;;;;;5049610;28;947;-70
2023/08/28 07:27:25;;;;;;;;;;;21.70;62.00;;;;;;5049468;28;975;-69
2023/08/28 07:29:51;;;;;;;;;;;21.70;61.90;;;;;;5044981;28;1299;-69
2023/08/28 07:32:16;;;;;;;;;;;21.70;61.50;;;;;;5053707;28;907;-69
2023/08/28 07:34:42;;;;;;;;;;;21.70;61.60;;;;;;5053515;28;1898;-69
2023/08/28 07:37:07;;;;;;;;;;;21.70;61.50;;;;;;5053595;28;851;-69
2023/08/28 07:39:33;;;;;;;;;;;21.70;61.70;;;;;;5051948;28;1875;-69
2023/08/28 07:41:58;;;;;;;;;;;21.70;62.00;;;;;;5053395;28;1318;-69
2023/08/28 07:44:24;;;;;;;;;;;21.70;61.70;;;;;;5056622;28;1385;-69
2023/08/28 07:46:49;;;;;;;;;;;21.70;62.10;;;;;;5053443;28;899;-68
2023/08/28 07:49:15;;;;;;;;;;;21.70;61.90;;;;;;5051882;28;1267;-70
2023/08/28 07:51:40;;;;;;;;;;;21.70;62.30;;;;;;5052959;28;902;-69
2023/08/28 07:54:06;;;;;;;;;;;21.70;61.70;;;;;;5047002;28;1910;-69
2023/08/28 07:56:31;;;;;;;;;;;21.70;62.30;;;;;;5053221;28;881;-69
2023/08/28 07:58:56;;;;;;;;;;;21.70;62.10;;;;;;5052490;28;1342;-69
2023/08/28 08:01:22;;;;;;;;;;;21.70;62.00;;;;;;5053096;28;879;-69
2023/08/28 08:03:48;;;;;;;;;;;21.70;62.30;;;;;;5053125;28;856;-70
2023/08/28 08:06:13;;;;;;;;;;;21.70;62.10;;;;;;5053192;28;821;-69
2023/08/28 08:08:40;;;;;;;;;;;21.70;62.00;;;;;;5052760;28;1153;-69
2023/08/28 08:11:05;;;;;;;;;;;21.70;62.10;;;;;;5053317;28;1183;-69
2023/08/28 08:13:31;;;;;;;;;;;21.70;62.10;;;;;;5053882;28;1898;-69
2023/08/28 08:15:56;;;;;;;;;;;21.70;62.60;;;;;;5052568;28;853;-69
2023/08/28 08:18:22;;;;;;;;;;;21.70;62.60;;;;;;5052456;28;1400;-69
2023/08/28 08:20:47;;;;;;;;;;;21.70;62.60;;;;;;5052756;28;1307;-69
2023/08/28 08:23:13;;;;;;;;;;;21.70;62.70;;;;;;5043895;28;1194;-69
2023/08/28 08:25:38;;;;;;;;;;;21.70;62.80;;;;;;5052618;28;827;-69
2023/08/28 08:28:04;;;;;;;;;;;21.70;62.90;;;;;;5046522;28;1277;-69
2023/08/28 08:30:30;;;;;;;;;;;21.70;62.70;;;;;;5052572;28;1282;-68
2023/08/28 08:32:55;;;;;;;;;;;21.70;62.60;;;;;;5052518;28;911;-69
2023/08/28 08:35:21;;;;;;;;;;;21.70;62.60;;;;;;5052668;28;1910;-69
2023/08/28 08:37:47;;;;;;;;;;;21.70;62.50;;;;;;5067226;28;1189;-69
2023/08/28 08:40:13;;;;;;;;;;;21.70;62.40;;;;;;5051763;28;1274;-69
2023/08/28 08:42:39;;;;;;;;;;;21.70;62.40;;;;;;5033706;28;1333;-69
2023/08/28 08:45:05;;;;;;;;;;;21.70;62.30;;;;;;5052272;28;847;-69
2023/08/28 08:47:30;;;;;;;;;;;21.70;62.50;;;;;;5052331;28;792;-69
2023/08/28 08:49:58;;;;;;;;;;;21.70;62.70;;;;;;5042891;28;1388;-69
2023/08/28 08:52:24;;;;;;;;;;;21.70;63.50;;;;;;5043998;28;876;-69
2023/08/28 08:54:51;;;;;;;;;;;21.70;62.50;;;;;;5045699;28;1902;-69
2023/08/28 08:57:42;;;;;;;;;;;21.70;62.60;;;;;;5044556;28;877;-69
2023/08/28 09:00:11;;;;;;;;;;;21.70;62.30;;;;;;5051474;28;1728;-69
2023/08/28 09:02:37;;;;;;;;;;;21.70;62.70;;;;;;5049381;28;851;-69
2023/08/28 09:05:03;;;;;;;;;;;21.70;62.80;;;;;;5051908;28;915;-69
2023/08/28 09:07:29;;;;;;;;;;;21.70;62.70;;;;;;5049295;28;888;-69
2023/08/28 09:09:54;;;;;;;;;;;21.70;62.80;;;;;;5051155;28;1263;-69
2023/08/28 09:12:20;;;;;;;;;;;21.70;62.90;;;;;;5044105;28;935;-69
2023/08/28 09:14:45;;;;;;;;;;;21.70;62.70;;;;;;5051888;28;1921;-69
2023/08/28 09:17:11;;;;;;;;;;;21.70;62.60;;;;;;5050996;28;839;-69
2023/08/28 09:19:36;;;;;;;;;;;21.70;62.70;;;;;;5050686;28;1524;-70
2023/08/28 09:22:03;;;;;;;;;;;21.70;62.60;;;;;;5051704;28;844;-69
2023/08/28 09:24:29;;;;;;;;;;;21.70;62.70;;;;;;5051881;28;887;-69
2023/08/28 09:26:54;;;;;;;;;;;21.70;62.80;;;;;;5049286;28;820;-70
2023/08/28 09:29:21;;;;;;;;;;;21.70;62.70;;;;;;5050293;28;1269;-69
2023/08/28 09:31:46;;;;;;;;;;;21.70;62.40;;;;;;5045545;28;914;-69
2023/08/28 09:34:12;;;;;;;;;;;21.70;62.30;;;;;;5051451;28;1901;-69
2023/08/28 09:36:38;;;;;;;;;;;21.80;62.70;;;;;;5051478;28;1396;-69
2023/08/28 09:39:04;;;;;;;;;;;21.80;62.70;;;;;;5050720;28;1310;-69
2023/08/28 09:41:40;;;;;;;;;;;21.70;62.60;;;;;;5033617;28;1072;-69
2023/08/28 09:44:05;;;;;;;;;;;21.80;62.10;;;;;;5044325;28;1281;-69
2023/08/28 09:46:31;;;;;;;;;;;21.70;61.40;;;;;;5051367;28;882;-69
2023/08/28 09:48:57;;;;;;;;;;;21.70;61.20;;;;;;5050552;28;1318;-69
2023/08/28 09:51:22;;;;;;;;;;;21.70;61.70;;;;;;5032890;28;1592;-69
2023/08/28 09:53:58;;;;;;;;;;;21.70;62.60;;;;;;5047411;28;1965;-69
2023/08/28 09:56:28;;;;;;;;;;;21.70;61.70;;;;;;5033070;28;1553;-69
2023/08/28 09:58:54;;;;;;;;;;;21.70;62.00;;;;;;5051011;28;1295;-69
2023/08/28 10:01:20;;;;;;;;;;;21.70;61.80;;;;;;5045037;28;1531;-69
2023/08/28 10:03:46;;;;;;;;;;;21.70;61.20;;;;;;5050345;28;843;-69
2023/08/28 10:06:11;;;;;;;;;;;21.70;61.70;;;;;;5050282;28;1908;-69
2023/08/28 10:08:37;;;;;;;;;;;21.70;61.50;;;;;;5044972;28;1332;-68
2023/08/28 10:11:03;;;;;;;;;;;21.70;61.70;;;;;;5048029;28;1496;-69
2023/08/28 10:13:28;;;;;;;;;;;21.70;61.40;;;;;;5049536;28;1975;-69
2023/08/28 10:15:55;;;;;;;;;;;21.70;61.70;;;;;;5047912;28;875;-69
2023/08/28 10:18:25;;;;;;;;;;;21.70;61.60;;;;;;5044569;28;1363;-70
2023/08/28 10:20:50;;;;;;;;;;;21.70;61.50;;;;;;5050600;28;1228;-69
2023/08/28 10:23:16;;;;;;;;;;;21.70;61.70;;;;;;5050291;28;942;-69
2023/08/28 10:25:41;;;;;;;;;;;21.70;62.00;;;;;;5050531;28;887;-70
2023/08/28 10:28:07;;;;;;;;;;;21.70;61.80;;;;;;5054752;28;1435;-70
2023/08/28 10:30:34;;;;;;;;;;;21.70;62.10;;;;;;5045128;28;1245;-70
2023/08/28 10:32:59;;;;;;;;;;;21.70;62.20;;;;;;5041920;28;804;-70
2023/08/28 10:35:24;;;;;;;;;;;21.70;62.20;;;;;;5050453;28;1914;-70
2023/08/28 10:37:51;;;;;;;;;;;21.70;62.60;;;;;;5049654;28;903;-70
2023/08/28 10:40:17;;;;;;;;;;;21.70;62.70;;;;;;5050024;28;1256;-70
2023/08/28 10:42:42;;;;;;;;;;;21.70;62.70;;;;;;5046104;28;1260;-69
2023/08/28 10:45:08;;;;;;;;;;;21.70;62.90;;;;;;5050014;28;1033;-70
2023/08/28 10:47:34;;;;;;;;;;;21.70;62.70;;;;;;5050400;28;1014;-70
2023/08/28 10:49:59;;;;;;;;;;;21.70;62.90;;;;;;5049565;28;1244;-70
2023/08/28 10:52:25;;;;;;;;;;;21.70;62.70;;;;;;5044946;28;943;-69
2023/08/28 10:54:50;;;;;;;;;;;21.70;62.60;;;;;;5049777;28;1898;-70
2023/08/28 10:57:22;;;;;;;;;;;21.70;62.80;;;;;;5042893;28;854;-70
2023/08/28 10:59:49;;;;;;;;;;;21.70;63.20;;;;;;5049519;28;1296;-69
2023/08/28 11:02:14;;;;;;;;;;;21.70;63.20;;;;;;5049965;28;879;-70
2023/08/28 11:04:40;;;;;;;;;;;21.70;63.40;;;;;;5049210;28;832;-70
2023/08/28 11:07:27;;;;;;;;;;;21.70;63.20;;;;;;5040374;28;859;-70
2023/08/28 11:10:12;;;;;;;;;;;21.70;63.20;;;;;;5048008;28;1322;-70
2023/08/28 11:12:51;;;;;;;;;;;21.70;63.60;;;;;;5045597;28;1401;-70
2023/08/28 11:15:24;;;;;;;;;;;21.70;63.30;;;;;;5046293;28;1983;-69
2023/08/28 11:17:50;;;;;;;;;;;21.70;63.40;;;;;;5047925;28;926;-69
2023/08/28 11:20:15;;;;;;;;;;;21.70;63.40;;;;;;5044213;28;1333;-71
2023/08/28 11:22:41;;;;;;;;;;;21.70;63.60;;;;;;5045769;28;1294;-71
2023/08/28 11:25:10;;;;;;;;;;;21.70;63.60;;;;;;5045650;28;917;-72
2023/08/28 11:27:42;;;;;;;;;;;21.70;63.90;;;;;;5042464;28;1933;-70
2023/08/28 11:30:08;;;;;;;;;;;21.70;63.80;;;;;;5045744;28;1312;-72
2023/08/28 11:32:33;;;;;;;;;;;21.80;63.60;;;;;;5049214;28;1202;-71
2023/08/28 11:35:05;;;;;;;;;;;21.70;63.60;;;;;;5049456;28;1949;-71
2023/08/28 11:37:35;;;;;;;;;;;21.80;63.60;;;;;;5063746;28;1469;-71
2023/08/28 11:40:01;;;;;;;;;;;21.80;63.70;;;;;;5040766;28;1350;-70
2023/08/28 11:42:29;;;;;;;;;;;21.80;63.60;;;;;;5047407;28;1614;-69
2023/08/28 11:44:55;;;;;;;;;;;21.80;63.30;;;;;;5039472;28;1622;-71
2023/08/28 11:47:24;;;;;;;;;;;21.80;63.10;;;;;;5043912;28;875;-71
2023/08/28 11:49:50;;;;;;;;;;;21.80;63.20;;;;;;5037730;28;1252;-71
2023/08/28 11:52:16;;;;;;;;;;;21.80;63.00;;;;;;5049565;28;1274;-71
2023/08/28 11:54:41;;;;;;;;;;;21.70;62.80;;;;;;5042023;28;1926;-70
2023/08/28 11:57:07;;;;;;;;;;;21.80;62.90;;;;;;5048491;28;922;-75
2023/08/28 11:59:33;;;;;;;;;;;21.80;62.90;;;;;;5037460;28;1268;-76
2023/08/28 12:01:59;;;;;;;;;;;21.70;62.80;;;;;;5043211;28;876;-76
2023/08/28 12:04:24;;;;;;;;;;;21.80;62.80;;;;;;5048616;28;872;-76
2023/08/28 12:06:50;;;;;;;;;;;21.80;62.70;;;;;;5051816;28;1163;-76
2023/08/28 12:09:16;;;;;;;;;;;21.80;63.20;;;;;;5052319;28;1446;-73
2023/08/28 12:11:41;;;;;;;;;;;21.80;63.00;;;;;;5040240;28;837;-76
2023/08/28 12:14:13;;;;;;;;;;;21.80;62.80;;;;;;5044598;28;1915;-75
2023/08/28 12:16:39;;;;;;;;;;;21.80;62.80;;;;;;5047197;28;1073;-75
2023/08/28 12:19:04;;;;;;;;;;;21.70;62.80;;;;;;5045786;28;1337;-70
2023/08/28 12:21:34;;;;;;;;;;;21.80;62.70;;;;;;5050837;28;882;-73
2023/08/28 12:23:59;;;;;;;;;;;21.80;62.70;;;;;;5050732;28;883;-73
2023/08/28 12:26:25;;;;;;;;;;;21.80;62.70;;;;;;5053091;28;847;-72
2023/08/28 12:28:51;;;;;;;;;;;21.70;62.60;;;;;;5052025;28;1350;-70
2023/08/28 12:31:32;;;;;;;;;;;21.70;62.40;;;;;;5048921;28;975;-73
2023/08/28 12:34:05;;;;;;;;;;;21.70;62.40;;;;;;5050746;28;1898;-72
2023/08/28 12:36:47;;;;;;;;;;;21.70;62.50;;;;;;5051534;28;975;-73
2023/08/28 12:39:13;;;;;;;;;;;21.70;62.20;;;;;;5051420;28;1282;-72
2023/08/28 12:41:47;;;;;;;;;;;21.70;62.10;;;;;;5032877;28;1453;-72
2023/08/28 12:44:13;;;;;;;;;;;21.70;61.80;;;;;;5048565;28;1340;-70
2023/08/28 12:46:38;;;;;;;;;;;21.70;61.90;;;;;;5052528;28;923;-73
2023/08/28 12:49:04;;;;;;;;;;;21.70;61.90;;;;;;5051417;28;1343;-72
2023/08/28 12:51:29;;;;;;;;;;;21.70;61.90;;;;;;5043980;28;1023;-71
2023/08/28 12:53:55;;;;;;;;;;;21.70;62.00;;;;;;5052170;28;1894;-73
2023/08/28 12:56:20;;;;;;;;;;;21.70;62.10;;;;;;5052191;28;1059;-72
2023/08/28 12:58:47;;;;;;;;;;;21.70;62.10;;;;;;5051429;28;887;-73
2023/08/28 13:01:13;;;;;;;;;;;21.70;62.30;;;;;;5051851;28;1590;-72
2023/08/28 13:03:38;;;;;;;;;;;21.70;62.40;;;;;;5050651;28;1193;-73
2023/08/28 13:06:04;;;;;;;;;;;21.80;62.60;;;;;;5051537;28;1049;-72
2023/08/28 13:08:30;;;;;;;;;;;21.70;62.80;;;;;;5051319;28;1473;-74
2023/08/28 13:10:55;;;;;;;;;;;21.80;62.80;;;;;;5048682;28;1259;-73
2023/08/28 13:13:24;;;;;;;;;;;21.80;62.80;;;;;;5051810;28;1977;-72
2023/08/28 13:15:54;;;;;;;;;;;21.70;62.80;;;;;;5034234;28;1246;-72
2023/08/28 13:18:19;;;;;;;;;;;21.80;63.00;;;;;;5050391;28;1375;-73
2023/08/28 13:20:44;;;;;;;;;;;21.80;62.90;;;;;;5051542;28;1276;-69
2023/08/28 13:23:10;;;;;;;;;;;21.80;62.80;;;;;;5051454;28;1018;-74
2023/08/28 13:25:35;;;;;;;;;;;21.80;62.50;;;;;;5051547;28;863;-72
2023/08/28 13:28:01;;;;;;;;;;;21.80;62.20;;;;;;5050133;28;1286;-69
2023/08/28 13:30:27;;;;;;;;;;;21.80;62.10;;;;;;5051883;28;1382;-72
2023/08/28 13:32:52;;;;;;;;;;;21.80;62.10;;;;;;5052238;28;919;-73
2023/08/28 13:35:18;;;;;;;;;;;21.70;62.10;;;;;;5056373;28;1906;-72
2023/08/28 13:37:43;;;;;;;;;;;21.80;62.10;;;;;;5050113;28;1921;-71
2023/08/28 13:40:09;;;;;;;;;;;21.80;62.30;;;;;;5050467;28;1437;-73
2023/08/28 13:42:34;;;;;;;;;;;21.80;62.30;;;;;;5051036;28;1249;-72
2023/08/28 13:45:00;;;;;;;;;;;21.80;62.70;;;;;;5051294;28;856;-71
2023/08/28 13:47:26;;;;;;;;;;;21.80;62.90;;;;;;5051247;28;883;-73
2023/08/28 13:49:52;;;;;;;;;;;21.80;62.90;;;;;;5044055;28;1565;-72
2023/08/28 13:52:18;;;;;;;;;;;21.80;63.00;;;;;;5041554;28;1397;-71
2023/08/28 13:54:44;;;;;;;;;;;21.80;63.10;;;;;;5051019;28;1906;-72
2023/08/28 13:57:09;;;;;;;;;;;21.80;63.00;;;;;;5050911;28;978;-72
2023/08/28 13:59:34;;;;;;;;;;;21.80;63.40;;;;;;5049962;28;1331;-72
2023/08/28 14:02:00;;;;;;;;;;;21.80;63.20;;;;;;5050846;28;1569;-72
2023/08/28 14:04:25;;;;;;;;;;;21.80;63.20;;;;;;5050727;28;884;-73
2023/08/28 14:06:51;;;;;;;;;;;21.80;63.20;;;;;;5051053;28;833;-73
2023/08/28 14:09:17;;;;;;;;;;;21.80;63.10;;;;;;5049427;28;1279;-74
2023/08/28 14:11:42;;;;;;;;;;;21.80;63.10;;;;;;5050963;28;891;-73
2023/08/28 14:14:08;;;;;;;;;;;21.80;63.20;;;;;;5050263;28;1973;-72
2023/08/28 14:16:33;;;;;;;;;;;21.80;63.20;;;;;;5049675;28;947;-73
2023/08/28 14:18:59;;;;;;;;;;;21.80;63.20;;;;;;5049708;28;1386;-71
2023/08/28 14:21:24;;;;;;;;;;;21.80;63.10;;;;;;5050757;28;808;-73
2023/08/28 14:23:50;;;;;;;;;;;21.80;63.20;;;;;;5050574;28;811;-73
2023/08/28 14:26:15;;;;;;;;;;;21.80;63.20;;;;;;5043340;28;939;-71
2023/08/28 14:28:42;;;;;;;;;;;21.80;63.10;;;;;;5030773;28;1389;-69
2023/08/28 14:31:07;;;;;;;;;;;21.80;63.00;;;;;;5050287;28;1284;-72